Time;durP1;ratioP1;P1;durP2;ratioP2;P2;SDS_P1;SDS_P2;PMS_P1;PMS_P2;Temp;Humidity;BMP_temperature;BMP_pressure;BME280_temperature;BME280_humidity;BME280_pressure;Samples;Min_cycle;Max_cycle;Signal;HPM_P1;HPM_P2
2022/03/01 00:01:09;;;;;;;6.97;4.77;;;1.30;55.30;;;;;;5035016;28;20230;-54
2022/03/01 00:03:35;;;;;;;8.70;5.87;;;1.30;55.20;;;;;;5034963;28;20204;-53
2022/03/01 00:06:01;;;;;;;8.83;5.90;;;1.30;54.90;;;;;;5034703;28;20800;-51
2022/03/01 00:08:26;;;;;;;8.03;5.30;;;1.30;56.00;;;;;;5034736;28;20426;-56
2022/03/01 00:10:52;;;;;;;8.13;5.43;;;1.30;55.80;;;;;;5034906;28;20168;-51
2022/03/01 00:13:17;;;;;;;9.00;6.13;;;1.20;55.70;;;;;;5034838;28;20172;-51
2022/03/01 00:15:43;;;;;;;9.07;5.57;;;1.20;55.40;;;;;;5034436;28;20179;-52
2022/03/01 00:18:08;;;;;;;7.33;5.53;;;1.20;55.40;;;;;;5034617;28;20199;-55
2022/03/01 00:20:34;;;;;;;8.90;5.83;;;1.20;55.20;;;;;;5034743;28;20176;-52
2022/03/01 00:23:00;;;;;;;9.73;5.50;;;1.20;55.30;;;;;;5033258;28;20819;-51
2022/03/01 00:25:25;;;;;;;9.10;6.37;;;1.20;55.70;;;;;;5034563;28;20194;-53
2022/03/01 00:27:51;;;;;;;9.20;6.73;;;1.20;55.70;;;;;;5034300;28;20680;-50
2022/03/01 00:30:16;;;;;;;8.67;6.00;;;1.30;55.70;;;;;;5033237;28;20254;-51
2022/03/01 00:32:42;;;;;;;8.40;6.17;;;1.30;56.10;;;;;;5034467;28;20187;-52
2022/03/01 00:35:08;;;;;;;8.70;6.27;;;1.20;55.70;;;;;;5034442;28;20168;-53
2022/03/01 00:37:33;;;;;;;9.20;6.53;;;1.30;55.70;;;;;;5033379;28;20286;-49
2022/03/01 00:39:59;;;;;;;10.67;6.77;;;1.20;55.50;;;;;;5034304;28;20254;-52
2022/03/01 00:42:25;;;;;;;7.73;6.50;;;1.20;55.90;;;;;;5034252;28;20599;-51
2022/03/01 00:44:50;;;;;;;10.57;7.20;;;1.20;55.70;;;;;;5034203;28;20176;-51
2022/03/01 00:47:16;;;;;;;10.90;6.97;;;1.10;56.10;;;;;;5032634;28;20192;-52
2022/03/01 00:49:41;;;;;;;7.90;6.10;;;1.10;56.10;;;;;;5034127;28;20168;-51
2022/03/01 00:52:07;;;;;;;7.53;6.13;;;1.10;56.10;;;;;;5034105;28;20667;-55
2022/03/01 00:54:32;;;;;;;10.27;5.67;;;1.00;56.20;;;;;;5034046;28;20176;-52
2022/03/01 00:56:58;;;;;;;13.13;6.37;;;0.90;57.20;;;;;;5032328;28;20188;-49
2022/03/01 00:59:23;;;;;;;7.70;5.87;;;1.00;56.80;;;;;;5033970;28;20179;-55
2022/03/01 01:01:49;;;;;;;9.33;6.30;;;0.90;56.50;;;;;;5034010;28;20682;-51
2022/03/01 01:04:14;;;;;;;8.43;6.10;;;0.90;56.30;;;;;;5032714;28;20786;-52
2022/03/01 01:06:40;;;;;;;8.50;6.10;;;0.90;56.30;;;;;;5033563;28;20199;-54
2022/03/01 01:09:06;;;;;;;8.33;5.57;;;0.90;56.50;;;;;;5033626;28;20195;-53
2022/03/01 01:11:31;;;;;;;8.57;5.93;;;1.00;56.30;;;;;;5033807;28;20175;-51
2022/03/01 01:13:57;;;;;;;7.83;5.37;;;0.90;55.90;;;;;;5033679;28;20176;-53
2022/03/01 01:16:22;;;;;;;10.63;5.83;;;0.90;56.00;;;;;;5033372;28;20672;-49
2022/03/01 01:18:48;;;;;;;8.47;5.63;;;0.90;56.10;;;;;;5033552;28;20198;-49
2022/03/01 01:21:14;;;;;;;7.33;5.50;;;0.80;56.10;;;;;;5032297;28;20238;-52
2022/03/01 01:23:41;;;;;;;7.57;5.10;;;0.80;56.40;;;;;;5033389;28;20745;-52
2022/03/01 01:26:07;;;;;;;8.43;5.67;;;0.80;56.40;;;;;;5033230;28;20187;-51
2022/03/01 01:28:32;;;;;;;7.17;5.20;;;0.80;57.30;;;;;;5033286;28;20474;-51
2022/03/01 01:30:58;;;;;;;7.17;5.17;;;0.70;56.90;;;;;;5033619;28;20172;-51
2022/03/01 01:33:23;;;;;;;6.63;5.13;;;0.70;56.90;;;;;;5033336;28;20588;-56
2022/03/01 01:35:49;;;;;;;8.63;5.70;;;0.70;56.90;;;;;;5033034;28;20183;-52
2022/03/01 01:38:14;;;;;;;7.60;5.20;;;0.60;57.00;;;;;;5033047;28;20225;-52
2022/03/01 01:40:40;;;;;;;9.80;6.23;;;0.60;57.00;;;;;;5033206;28;20176;-56
2022/03/01 01:43:06;;;;;;;8.30;5.70;;;0.70;57.60;;;;;;5033032;28;20207;-53
2022/03/01 01:45:33;;;;;;;7.33;5.70;;;0.60;57.00;;;;;;5032908;28;20183;-47
2022/03/01 01:48:00;;;;;;;7.97;5.60;;;0.50;57.40;;;;;;5032953;28;20192;-49
2022/03/01 01:50:28;;;;;;;8.10;5.43;;;0.50;57.70;;;;;;5032154;28;20818;-53
2022/03/01 01:52:54;;;;;;;8.80;6.03;;;0.50;57.40;;;;;;5032802;28;20414;-51
2022/03/01 01:55:20;;;;;;;9.27;5.80;;;0.50;57.40;;;;;;5032911;28;20414;-53
2022/03/01 01:57:47;;;;;;;8.53;5.07;;;0.60;57.50;;;;;;5032305;28;20450;-51
2022/03/01 02:00:14;;;;;;;8.03;5.47;;;0.50;57.50;;;;;;5033164;28;20896;-51
2022/03/01 02:02:40;;;;;;;9.13;5.87;;;0.50;58.10;;;;;;5032803;28;20543;-50
2022/03/01 02:05:07;;;;;;;7.80;5.73;;;0.40;58.20;;;;;;5031443;28;20414;-51
2022/03/01 02:07:33;;;;;;;7.87;5.50;;;0.50;58.20;;;;;;5032238;28;20811;-51
2022/03/01 02:09:58;;;;;;;8.93;5.27;;;0.40;58.30;;;;;;5032649;28;20832;-55
2022/03/01 02:12:24;;;;;;;8.57;5.57;;;0.50;58.30;;;;;;5032589;28;20437;-54
2022/03/01 02:14:50;;;;;;;7.30;5.43;;;0.50;58.30;;;;;;5032752;28;20176;-51
2022/03/01 02:17:17;;;;;;;8.40;5.50;;;0.40;58.40;;;;;;5032165;28;20203;-51
2022/03/01 02:19:50;;;;;;;7.60;5.63;;;0.50;58.80;;;;;;5032478;28;20182;-54
2022/03/01 02:22:17;;;;;;;9.53;5.50;;;0.50;58.50;;;;;;5032399;28;20402;-49
2022/03/01 02:24:43;;;;;;;7.70;5.60;;;0.50;58.90;;;;;;5032286;28;20410;-52
2022/03/01 02:27:09;;;;;;;7.83;5.37;;;0.50;60.30;;;;;;5032011;28;20399;-52
2022/03/01 02:29:34;;;;;;;7.77;5.40;;;0.40;58.90;;;;;;5032309;28;20164;-53
2022/03/01 02:32:08;;;;;;;7.37;5.20;;;0.40;58.90;;;;;;5032291;28;20164;-51
2022/03/01 02:34:34;;;;;;;8.53;5.80;;;0.40;58.90;;;;;;5032239;28;20179;-53
2022/03/01 02:37:00;;;;;;;7.47;5.60;;;0.50;60.30;;;;;;5031847;28;20418;-56
2022/03/01 02:39:26;;;;;;;8.73;5.60;;;0.50;59.60;;;;;;5031961;28;20780;-50
2022/03/01 02:41:51;;;;;;;7.90;5.50;;;0.50;59.50;;;;;;5030985;28;20176;-52
2022/03/01 02:44:17;;;;;;;7.67;5.53;;;0.40;59.10;;;;;;5032279;28;20203;-51
2022/03/01 02:46:43;;;;;;;8.07;5.40;;;0.40;59.10;;;;;;5031790;28;20176;-52
2022/03/01 02:49:09;;;;;;;8.70;5.33;;;0.40;59.30;;;;;;5031909;28;20555;-51
2022/03/01 02:51:35;;;;;;;8.57;5.90;;;0.30;59.40;;;;;;5032042;28;20214;-52
2022/03/01 02:54:02;;;;;;;9.37;5.40;;;0.30;59.30;;;;;;5031822;28;20799;-55
2022/03/01 02:56:27;;;;;;;6.50;4.70;;;0.30;59.30;;;;;;5031715;28;20179;-50
2022/03/01 02:58:55;;;;;;;7.13;5.20;;;0.20;59.40;;;;;;5032046;22;20494;-56
2022/03/01 03:01:22;;;;;;;8.23;5.87;;;0.30;59.60;;;;;;5011045;28;20169;-52
2022/03/01 03:03:48;;;;;;;8.30;5.90;;;0.30;59.30;;;;;;5011478;28;20447;-57
2022/03/01 03:06:13;;;;;;;8.23;5.40;;;0.40;59.30;;;;;;5011558;28;20520;-55
2022/03/01 03:08:39;;;;;;;8.27;5.33;;;0.40;59.20;;;;;;5011738;28;20197;-58
2022/03/01 03:11:05;;;;;;;9.37;6.00;;;0.40;59.10;;;;;;5012071;28;20597;-54
2022/03/01 03:13:31;;;;;;;7.63;5.40;;;0.40;59.00;;;;;;5012376;28;20400;-57
2022/03/01 03:15:56;;;;;;;8.80;5.70;;;0.40;59.30;;;;;;5011508;28;20176;-56
2022/03/01 03:18:22;;;;;;;10.00;6.27;;;0.30;59.40;;;;;;5011559;28;20210;-52
2022/03/01 03:20:47;;;;;;;9.37;6.10;;;0.30;59.50;;;;;;5012008;28;20184;-56
2022/03/01 03:23:13;;;;;;;9.77;6.13;;;0.30;59.50;;;;;;5011941;28;20200;-55
2022/03/01 03:25:38;;;;;;;7.00;5.43;;;0.40;59.60;;;;;;5011629;28;20176;-54
2022/03/01 03:28:04;;;;;;;7.60;5.60;;;0.40;59.60;;;;;;5011784;28;20211;-53
2022/03/01 03:30:30;;;;;;;9.77;6.03;;;0.50;59.50;;;;;;5011967;28;20280;-54
2022/03/01 03:32:56;;;;;;;7.87;5.80;;;0.50;59.60;;;;;;5011558;28;20208;-58
2022/03/01 03:35:21;;;;;;;8.47;6.10;;;0.60;59.60;;;;;;5011645;28;20177;-59
2022/03/01 03:37:47;;;;;;;8.63;6.20;;;0.60;59.70;;;;;;5011448;28;20228;-54
2022/03/01 03:40:13;;;;;;;10.40;7.07;;;0.60;59.70;;;;;;5011892;28;20184;-52
2022/03/01 03:42:39;;;;;;;9.33;6.50;;;0.70;59.80;;;;;;5011667;28;20196;-57
2022/03/01 03:45:05;;;;;;;9.87;7.20;;;0.60;59.50;;;;;;5011682;28;20180;-53
2022/03/01 03:47:31;;;;;;;11.07;7.73;;;0.50;60.90;;;;;;5011250;28;20411;-56
2022/03/01 03:49:57;;;;;;;13.00;7.20;;;0.40;59.60;;;;;;5011610;28;20407;-54
2022/03/01 03:52:23;;;;;;;12.03;6.80;;;0.30;60.20;;;;;;5011788;28;20453;-56
2022/03/01 03:54:50;;;;;;;10.00;6.87;;;0.40;60.80;;;;;;5011604;28;20185;-55
2022/03/01 03:57:15;;;;;;;9.20;6.43;;;0.40;60.70;;;;;;5011320;28;20192;-58
2022/03/01 03:59:41;;;;;;;8.67;6.03;;;0.40;60.60;;;;;;5011473;28;20936;-57
2022/03/01 04:02:07;;;;;;;10.27;6.30;;;0.40;60.70;;;;;;5011509;28;20173;-55
2022/03/01 04:04:34;;;;;;;9.43;5.37;;;0.40;60.50;;;;;;5011587;28;20223;-55
2022/03/01 04:06:59;;;;;;;6.70;5.00;;;0.40;60.20;;;;;;5010963;28;20430;-56
2022/03/01 04:09:25;;;;;;;6.57;5.20;;;0.40;60.60;;;;;;5011272;28;20443;-56
2022/03/01 04:11:51;;;;;;;8.67;5.57;;;0.40;60.20;;;;;;5011514;28;20169;-51
2022/03/01 04:14:19;;;;;;;8.47;5.27;;;0.30;60.70;;;;;;5014560;28;20260;-56
2022/03/01 04:16:46;;;;;;;8.73;5.50;;;0.40;60.40;;;;;;5014572;28;20187;-57
2022/03/01 04:19:12;;;;;;;8.40;5.40;;;0.30;60.50;;;;;;5014939;28;20797;-56
2022/03/01 04:21:38;;;;;;;8.40;5.20;;;0.30;60.30;;;;;;5014895;28;20425;-55
2022/03/01 04:24:04;;;;;;;9.40;5.40;;;;;;;;;;5014873;28;20208;-55
2022/03/01 04:26:30;;;;;;;7.50;5.30;;;0.30;60.20;;;;;;5014531;28;20415;-58
2022/03/01 04:28:56;;;;;;;8.90;6.00;;;0.20;61.10;;;;;;5014817;28;20196;-56
2022/03/01 04:31:22;;;;;;;7.53;5.57;;;0.20;61.70;;;;;;5014663;28;20203;-58
2022/03/01 04:33:48;;;;;;;9.57;5.43;;;0.20;61.80;;;;;;5014681;28;20223;-57
2022/03/01 04:36:14;;;;;;;7.30;5.30;;;0.20;62.00;;;;;;5014424;28;20931;-57
2022/03/01 04:38:39;;;;;;;8.60;5.00;;;0.20;62.20;;;;;;5014448;28;20212;-58
2022/03/01 04:41:05;;;;;;;8.23;5.70;;;0.20;62.20;;;;;;5014603;28;20411;-55
2022/03/01 04:43:31;;;;;;;6.97;5.20;;;0.20;62.10;;;;;;5014496;28;20547;-59
2022/03/01 04:45:57;;;;;;;8.40;5.60;;;0.20;62.50;;;;;;5014156;28;20200;-56
2022/03/01 04:48:23;;;;;;;8.07;5.50;;;0.20;62.90;;;;;;5014464;28;20525;-57
2022/03/01 04:50:50;;;;;;;7.50;5.30;;;0.20;62.90;;;;;;5014413;28;20640;-53
2022/03/01 04:53:15;;;;;;;7.33;5.40;;;0.20;63.00;;;;;;5014421;28;20490;-58
2022/03/01 04:55:41;;;;;;;10.13;6.23;;;0.20;63.10;;;;;;5014048;28;20435;-56
2022/03/01 04:58:06;;;;;;;8.43;6.33;;;0.20;63.50;;;;;;5013964;28;20740;-57
2022/03/01 05:00:32;;;;;;;11.23;6.90;;;0.20;63.50;;;;;;5014161;28;20466;-58
2022/03/01 05:02:58;;;;;;;10.77;6.63;;;0.20;63.40;;;;;;5014160;28;20208;-58
2022/03/01 05:05:23;;;;;;;10.53;6.17;;;0.20;63.50;;;;;;5014123;28;20227;-57
2022/03/01 05:07:49;;;;;;;9.07;5.70;;;0.10;64.20;;;;;;5013857;28;20200;-55
2022/03/01 05:10:20;;;;;;;8.13;5.60;;;0.10;65.00;;;;;;5014083;28;20227;-57
2022/03/01 05:12:54;;;;;;;9.40;5.93;;;-0.10;65.80;;;;;;5014215;28;20172;-57
2022/03/01 05:15:21;;;;;;;8.83;6.30;;;-0.20;66.20;;;;;;5013755;28;20454;-55
2022/03/01 05:17:47;;;;;;;8.53;5.70;;;-0.20;66.00;;;;;;5013689;28;20563;-55
2022/03/01 05:20:15;;;;;;;7.40;5.47;;;-0.20;65.90;;;;;;5014014;28;20411;-55
2022/03/01 05:22:42;;;;;;;8.27;5.53;;;-0.20;65.80;;;;;;5013679;28;20479;-55
2022/03/01 05:25:10;;;;;;;7.83;5.27;;;-0.20;66.10;;;;;;5013675;28;20423;-53
2022/03/01 05:27:40;;;;;;;8.07;5.60;;;-0.30;67.50;;;;;;5013331;28;20435;-54
2022/03/01 05:30:08;;;;;;;8.33;5.70;;;-0.20;66.30;;;;;;5013648;28;20746;-53
2022/03/01 05:32:34;;;;;;;8.13;5.67;;;-0.30;66.70;;;;;;5013592;28;20419;-53
2022/03/01 05:35:00;;;;;;;8.17;5.57;;;;;;;;;;5013634;28;20418;-56
2022/03/01 05:37:26;;;;;;;7.93;5.57;;;-0.40;68.50;;;;;;5013015;28;20455;-54
2022/03/01 05:39:51;;;;;;;8.20;5.57;;;-0.40;67.50;;;;;;5013364;28;20975;-54
2022/03/01 05:42:18;;;;;;;8.93;6.10;;;-0.40;67.30;;;;;;5013391;28;20168;-56
2022/03/01 05:44:44;;;;;;;9.10;6.47;;;-0.40;67.50;;;;;;5013286;28;20580;-58
2022/03/01 05:47:09;;;;;;;12.57;6.17;;;-0.40;68.40;;;;;;5013061;28;20415;-53
2022/03/01 05:49:35;;;;;;;12.50;8.07;;;-0.40;68.50;;;;;;5013221;28;20192;-54
2022/03/01 05:52:01;;;;;;;13.87;9.30;;;-0.40;68.50;;;;;;5013313;28;20179;-54
2022/03/01 05:54:26;;;;;;;12.07;8.70;;;-0.40;68.50;;;;;;5013334;28;20698;-60
2022/03/01 05:56:52;;;;;;;10.03;7.10;;;-0.50;68.70;;;;;;5011596;28;20227;-55
2022/03/01 05:59:17;;;;;;;9.03;5.83;;;-0.50;69.20;;;;;;5011524;28;20220;-54
2022/03/01 06:01:43;;;;;;;9.23;6.13;;;-0.50;69.20;;;;;;5013099;28;20637;-55
2022/03/01 06:04:08;;;;;;;9.67;5.90;;;-0.50;69.30;;;;;;5013057;28;20226;-53
2022/03/01 06:06:34;;;;;;;8.60;6.40;;;-0.60;69.60;;;;;;5012739;28;20652;-53
2022/03/01 06:08:59;;;;;;;7.53;5.53;;;-0.60;69.90;;;;;;5012686;28;20212;-55
2022/03/01 06:11:25;;;;;;;9.37;5.70;;;-0.70;69.50;;;;;;5012773;28;20226;-54
2022/03/01 06:13:50;;;;;;;8.23;5.70;;;-0.70;69.70;;;;;;5012675;28;20519;-55
2022/03/01 06:16:16;;;;;;;9.83;6.00;;;-0.60;69.80;;;;;;5012469;28;20633;-52
2022/03/01 06:18:42;;;;;;;7.50;5.47;;;-0.60;69.70;;;;;;5012664;28;20754;-55
2022/03/01 06:21:08;;;;;;;8.03;6.03;;;-0.60;70.00;;;;;;5012741;28;20498;-55
2022/03/01 06:23:34;;;;;;;8.57;5.57;;;-0.60;70.20;;;;;;5012535;28;20243;-58
2022/03/01 06:25:59;;;;;;;8.40;6.27;;;-0.60;70.20;;;;;;5011178;28;20447;-54
2022/03/01 06:28:25;;;;;;;8.93;6.30;;;-0.50;70.00;;;;;;5012407;28;20246;-53
2022/03/01 06:30:50;;;;;;;10.80;6.13;;;-0.40;69.70;;;;;;5012633;28;20172;-56
2022/03/01 06:33:18;;;;;;;8.73;5.73;;;-0.30;69.50;;;;;;5012496;28;20176;-52
2022/03/01 06:35:44;;;;;;;8.37;5.90;;;-0.20;69.30;;;;;;5011882;28;20173;-57
2022/03/01 06:38:10;;;;;;;12.17;6.03;;;-0.10;69.10;;;;;;5012451;28;20513;-54
2022/03/01 06:40:35;;;;;;;8.20;5.30;;;0.00;68.90;;;;;;5012251;28;20463;-54
2022/03/01 06:43:01;;;;;;;8.60;5.77;;;0.10;69.50;;;;;;5011174;28;20222;-59
2022/03/01 06:45:26;;;;;;;8.07;5.40;;;0.10;69.60;;;;;;5012233;28;20258;-56
2022/03/01 06:47:52;;;;;;;9.47;6.17;;;0.20;69.10;;;;;;5011897;28;20211;-55
2022/03/01 06:50:17;;;;;;;10.03;6.13;;;0.20;68.80;;;;;;5012088;28;20215;-59
2022/03/01 06:52:43;;;;;;;9.30;6.57;;;0.30;68.50;;;;;;5012174;28;20242;-53
2022/03/01 06:55:09;;;;;;;8.90;6.77;;;0.40;68.40;;;;;;5012114;28;20688;-54
2022/03/01 06:57:38;;;;;;;9.40;6.83;;;0.60;68.90;;;;;;5011645;28;20210;-51
2022/03/01 07:00:04;;;;;;;9.50;6.80;;;0.50;67.80;;;;;;5012145;28;20435;-56
2022/03/01 07:02:30;;;;;;;8.87;6.70;;;0.60;67.70;;;;;;5011883;28;20412;-56
2022/03/01 07:04:56;;;;;;;9.73;6.60;;;0.70;67.40;;;;;;5012041;28;20404;-54
2022/03/01 07:07:22;;;;;;;8.67;5.37;;;0.70;66.70;;;;;;5011608;28;20211;-58
2022/03/01 07:09:48;;;;;;;8.27;5.23;;;0.80;66.10;;;;;;5011830;28;20426;-58
2022/03/01 07:12:14;;;;;;;7.77;5.50;;;0.90;65.70;;;;;;5011991;28;20784;-55
2022/03/01 07:14:39;;;;;;;7.63;5.93;;;1.00;65.60;;;;;;5011917;28;20407;-55
2022/03/01 07:17:05;;;;;;;7.10;5.60;;;1.10;65.10;;;;;;5011474;28;20172;-58
2022/03/01 07:19:31;;;;;;;7.50;5.07;;;1.20;64.70;;;;;;5011766;28;20207;-58
2022/03/01 07:21:56;;;;;;;8.20;5.73;;;1.30;64.70;;;;;;5011905;28;20634;-54
2022/03/01 07:24:22;;;;;;;7.97;5.93;;;1.40;64.80;;;;;;5011689;28;20572;-58
2022/03/01 07:26:47;;;;;;;7.60;5.13;;;1.50;64.60;;;;;;5011476;28;20171;-54
2022/03/01 07:29:13;;;;;;;6.00;4.97;;;;;;;;;;5011690;28;20741;-54
2022/03/01 07:31:39;;;;;;;6.37;4.80;;;1.70;63.90;;;;;;5011565;28;20207;-57
2022/03/01 07:34:04;;;;;;;8.23;5.53;;;1.80;63.10;;;;;;5011584;28;20195;-58
2022/03/01 07:36:30;;;;;;;6.77;5.50;;;1.80;63.80;;;;;;5011406;28;20554;-58
2022/03/01 07:38:56;;;;;;;8.20;5.13;;;2.00;63.80;;;;;;5011551;28;20224;-57
2022/03/01 07:41:21;;;;;;;7.37;5.33;;;2.10;62.90;;;;;;5011639;28;20634;-55
2022/03/01 07:43:47;;;;;;;6.97;5.07;;;2.20;63.50;;;;;;5011621;28;20275;-58
2022/03/01 07:46:13;;;;;;;8.43;5.43;;;2.30;62.70;;;;;;5010027;28;20176;-56
2022/03/01 07:48:43;;;;;;;7.40;5.20;;;2.30;62.90;;;;;;5013736;28;20180;-58
2022/03/01 07:51:09;;;;;;;6.93;5.53;;;2.50;63.10;;;;;;5015898;28;20172;-56
2022/03/01 07:53:35;;;;;;;6.77;5.13;;;2.60;61.70;;;;;;5015660;28;20441;-58
2022/03/01 07:56:01;;;;;;;8.73;4.87;;;2.60;62.90;;;;;;5015188;28;20416;-57
2022/03/01 07:58:27;;;;;;;6.80;5.27;;;2.60;62.90;;;;;;5015364;28;20450;-57
2022/03/01 08:00:52;;;;;;;6.40;4.97;;;2.80;63.50;;;;;;5015358;28;20173;-56
2022/03/01 08:03:18;;;;;;;7.60;5.03;;;2.90;62.00;;;;;;5015287;28;20193;-59
2022/03/01 08:05:45;;;;;;;6.27;4.73;;;2.70;60.90;;;;;;5014835;28;20176;-56
2022/03/01 08:08:10;;;;;;;6.97;5.23;;;2.50;62.40;;;;;;5015143;28;20199;-59
2022/03/01 08:10:36;;;;;;;7.43;5.20;;;2.50;62.50;;;;;;5015176;28;20443;-56
2022/03/01 08:13:01;;;;;;;6.40;5.00;;;2.30;62.70;;;;;;5015129;28;20184;-55
2022/03/01 08:15:27;;;;;;;6.73;5.23;;;2.40;63.50;;;;;;5014892;28;20606;-53
2022/03/01 08:17:55;;;;;;;6.90;4.70;;;2.50;63.50;;;;;;5014739;28;20196;-57
2022/03/01 08:20:22;;;;;;;6.17;4.63;;;2.80;63.40;;;;;;5014988;28;20188;-54
2022/03/01 08:22:47;;;;;;;9.60;5.20;;;3.10;62.60;;;;;;5014908;28;20254;-56
2022/03/01 08:25:13;;;;;;;6.37;5.00;;;3.30;62.30;;;;;;5014834;28;20641;-53
2022/03/01 08:27:39;;;;;;;8.47;4.97;;;3.70;60.70;;;;;;5014575;28;20532;-55
2022/03/01 08:30:06;;;;;;;7.17;4.90;;;3.60;60.70;;;;;;5014873;28;20251;-54
2022/03/01 08:32:31;;;;;;;6.03;5.03;;;3.80;60.90;;;;;;5014853;28;20198;-57
2022/03/01 08:34:57;;;;;;;7.33;5.03;;;4.00;60.10;;;;;;5014695;28;20637;-55
2022/03/01 08:37:23;;;;;;;6.00;4.93;;;4.40;59.40;;;;;;5014256;28;20168;-58
2022/03/01 08:39:49;;;;;;;6.87;4.90;;;4.80;58.50;;;;;;5014461;28;20656;-58
2022/03/01 08:42:15;;;;;;;6.80;4.80;;;5.10;58.10;;;;;;5014623;28;20211;-55
2022/03/01 08:44:40;;;;;;;5.30;4.37;;;5.50;56.80;;;;;;5014561;28;20621;-56
2022/03/01 08:47:06;;;;;;;6.07;4.30;;;6.00;55.70;;;;;;5014146;28;20204;-55
2022/03/01 08:49:31;;;;;;;6.50;4.60;;;6.40;53.30;;;;;;5014348;28;20250;-59
2022/03/01 08:51:57;;;;;;;6.10;4.23;;;6.60;53.10;;;;;;5014427;28;20657;-57
2022/03/01 08:54:23;;;;;;;6.57;4.30;;;7.00;52.00;;;;;;5014340;28;20172;-56
2022/03/01 08:56:49;;;;;;;5.10;3.70;;;7.60;51.20;;;;;;5013942;28;20307;-56
2022/03/01 08:59:14;;;;;;;6.77;3.90;;;8.60;49.40;;;;;;5089324;23;20266;-58
2022/03/01 09:01:40;;;;;;;4.23;3.63;;;9.70;46.90;;;;;;5025905;28;20238;-57
2022/03/01 09:04:05;;;;;;;5.37;3.73;;;10.80;43.90;;;;;;5033429;28;20304;-58
2022/03/01 09:06:31;;;;;;;5.50;3.80;;;11.90;42.00;;;;;;5033266;28;20176;-56
2022/03/01 09:08:57;;;;;;;4.63;3.60;;;12.90;40.40;;;;;;5033291;28;20284;-57
2022/03/01 09:11:22;;;;;;;4.00;3.17;;;13.80;38.80;;;;;;5033700;28;20183;-57
2022/03/01 09:13:48;;;;;;;4.80;3.33;;;15.10;36.20;;;;;;5033627;28;20175;-55
2022/03/01 09:16:14;;;;;;;3.20;2.90;;;16.60;34.50;;;;;;5033247;28;20366;-58
2022/03/01 09:18:39;;;;;;;3.40;3.10;;;18.20;32.40;;;;;;5033312;28;20604;-59
2022/03/01 09:21:06;;;;;;;4.55;3.80;;;19.20;30.90;;;;;;5033639;28;20510;-59
2022/03/01 09:23:32;;;;;;;3.20;2.90;;;20.10;28.60;;;;;;5033484;28;20257;-58
2022/03/01 09:25:58;;;;;;;3.53;3.22;;;20.90;27.70;;;;;;5033174;28;20233;-57
2022/03/01 09:28:23;;;;;;;3.80;3.15;;;21.80;26.50;;;;;;5033333;28;20184;-58
2022/03/01 09:30:49;;;;;;;3.22;2.92;;;22.60;26.70;;;;;;5033759;28;20176;-56
2022/03/01 09:33:15;;;;;;;3.80;3.30;;;24.20;25.70;;;;;;5033313;28;20275;-59
2022/03/01 09:35:41;;;;;;;2.88;2.60;;;25.00;24.70;;;;;;5032849;28;20180;-59
2022/03/01 09:38:07;;;;;;;2.90;2.60;;;25.50;24.20;;;;;;5033289;28;20653;-58
2022/03/01 09:40:33;;;;;;;3.25;2.95;;;26.10;23.90;;;;;;5033579;28;20183;-59
2022/03/01 09:43:00;;;;;;;3.47;3.17;;;27.40;22.80;;;;;;5033408;28;20207;-58
2022/03/01 09:45:25;;;;;;;3.53;3.13;;;28.10;21.80;;;;;;5033302;28;20172;-59
2022/03/01 09:47:52;;;;;;;3.22;2.92;;;29.20;21.50;;;;;;5033270;28;20172;-59
2022/03/01 09:50:20;;;;;;;3.10;2.80;;;30.00;20.50;;;;;;5033295;28;20192;-59
2022/03/01 09:52:46;;;;;;;3.28;2.97;;;30.40;20.00;;;;;;5032994;28;20171;-57
2022/03/01 09:55:11;;;;;;;3.10;2.88;;;30.60;19.90;;;;;;5033009;28;20160;-57
2022/03/01 09:57:38;;;;;;;2.80;2.50;;;31.60;19.50;;;;;;5032755;28;20196;-59
2022/03/01 10:00:07;;;;;;;2.78;2.38;;;32.70;18.40;;;;;;5032841;28;20228;-59
2022/03/01 10:02:41;;;;;;;2.67;2.47;;;32.70;17.60;;;;;;5032863;28;20172;-59
2022/03/01 10:05:08;;;;;;;2.80;2.60;;;32.40;17.80;;;;;;5033027;28;20211;-59
2022/03/01 10:07:34;;;;;;;2.90;2.70;;;31.60;17.80;;;;;;5032169;28;20183;-59
2022/03/01 10:10:18;;;;;;;4.20;2.92;;;31.20;17.60;;;;;;5032135;28;20203;-57
2022/03/01 10:12:51;;;;;;;2.92;2.55;;;31.70;18.10;;;;;;5032791;28;20202;-59
2022/03/01 10:15:17;;;;;;;2.78;2.40;;;32.80;17.30;;;;;;5032666;28;20641;-58
2022/03/01 10:17:44;;;;;;;3.00;2.70;;;32.80;17.10;;;;;;5032281;28;20168;-60
2022/03/01 10:20:13;;;;;;;2.78;2.33;;;32.90;16.50;;;;;;5032562;28;20286;-59
2022/03/01 10:22:49;;;;;;;2.15;2.05;;;32.50;16.70;;;;;;5032557;28;20164;-59
2022/03/01 10:25:17;;;;;;;3.13;2.50;;;33.20;16.60;;;;;;5032853;28;20557;-59
2022/03/01 10:27:44;;;;;;;2.40;2.20;;;34.00;15.90;;;;;;5032331;28;20194;-57
2022/03/01 10:30:11;;;;;;;2.28;2.08;;;34.60;15.40;;;;;;5032611;28;20195;-61
2022/03/01 10:32:37;;;;;;;2.72;2.53;;;34.80;15.10;;;;;;5032606;28;20548;-55
2022/03/01 10:35:08;;;;;;;2.95;2.25;;;34.90;14.90;;;;;;5032470;28;20172;-56
2022/03/01 10:37:36;;;;;;;3.25;2.25;;;34.60;15.40;;;;;;5032114;28;20267;-57
2022/03/01 10:40:13;;;;;;;2.65;2.42;;;34.50;14.30;;;;;;5032137;28;20192;-58
2022/03/01 10:42:39;;;;;;;2.45;2.25;;;32.60;15.60;;;;;;5032507;28;20180;-57
2022/03/01 10:45:05;;;;;;;2.40;2.20;;;32.40;15.60;;;;;;5032281;28;20587;-58
2022/03/01 10:47:32;;;;;;;2.40;2.20;;;32.80;15.00;;;;;;5032144;28;20168;-59
2022/03/01 10:50:16;;;;;;;2.70;2.50;;;32.50;15.80;;;;;;5032229;28;20553;-59
2022/03/01 10:52:42;;;;;;;2.72;2.53;;;33.30;15.10;;;;;;5032110;28;20659;-60
2022/03/01 10:55:25;;;;;;;2.53;2.33;;;33.50;15.00;;;;;;5032457;28;20264;-61
2022/03/01 10:58:06;;;;;;;2.88;2.67;;;33.40;14.90;;;;;;5032089;28;20167;-59
2022/03/01 11:00:33;;;;;;;3.15;2.85;;;32.50;15.00;;;;;;5032599;28;20657;-61
2022/03/01 11:03:01;;;;;;;2.85;2.65;;;31.90;15.70;;;;;;5032194;28;20179;-59
2022/03/01 11:05:29;;;;;;;4.00;2.58;;;31.60;15.80;;;;;;5032365;28;20176;-55
2022/03/01 11:08:04;;;;;;;2.90;2.70;;;32.30;15.40;;;;;;5032225;28;20200;-59
2022/03/01 11:10:32;;;;;;;2.85;2.60;;;31.00;15.40;;;;;;5032023;28;20179;-56
2022/03/01 11:13:00;;;;;;;2.88;2.67;;;29.40;16.40;;;;;;5032260;28;20660;-60
2022/03/01 11:15:54;;;;;;;2.50;2.30;;;29.80;16.70;;;;;;5031949;28;20192;-58
2022/03/01 11:18:38;;;;;;;2.90;2.60;;;31.40;15.80;;;;;;5031968;28;20241;-60
2022/03/01 11:21:05;;;;;;;2.92;2.63;;;32.90;15.60;;;;;;5032884;28;20333;-59
2022/03/01 11:23:32;;;;;;;2.60;2.40;;;35.10;15.00;;;;;;5036136;28;20589;-58
2022/03/01 11:26:08;;;;;;;3.65;2.72;;;35.40;13.50;;;;;;5036135;28;20179;-57
2022/03/01 11:28:40;;;;;;;2.80;2.60;;;31.00;15.80;;;;;;5035998;28;20294;-60
2022/03/01 11:31:21;;;;;;;2.80;2.60;;;29.90;16.40;;;;;;5036299;28;20653;-59
2022/03/01 11:34:04;;;;;;;3.33;3.03;;;30.70;16.20;;;;;;5036256;28;20688;-56
2022/03/01 11:36:32;;;;;;;3.05;2.83;;;31.90;15.60;;;;;;5035886;28;20168;-60
2022/03/01 11:39:12;;;;;;;3.03;2.50;;;33.30;15.30;;;;;;5035750;28;20195;-60
2022/03/01 11:41:49;;;;;;;2.80;2.60;;;34.00;14.30;;;;;;5035879;28;20172;-59
2022/03/01 11:44:20;;;;;;;2.65;2.45;;;33.90;14.30;;;;;;5036172;28;20218;-59
2022/03/01 11:46:48;;;;;;;2.60;2.40;;;30.20;15.50;;;;;;5035741;28;20168;-59
2022/03/01 11:49:16;;;;;;;2.95;2.72;;;27.60;16.60;;;;;;5035643;28;20192;-61
2022/03/01 11:51:58;;;;;;;2.90;2.70;;;27.00;18.20;;;;;;5035773;28;20168;-60
2022/03/01 11:54:36;;;;;;;3.15;2.78;;;27.00;18.20;;;;;;5036035;28;20203;-60
2022/03/01 11:57:04;;;;;;;3.45;2.70;;;28.90;18.00;;;;;;5035854;28;20250;-59
2022/03/01 11:59:30;;;;;;;2.70;2.50;;;30.80;17.30;;;;;;5035398;28;20199;-58
2022/03/01 12:01:56;;;;;;;3.10;2.80;;;31.80;15.70;;;;;;5036440;28;20196;-59
2022/03/01 12:04:27;;;;;;;3.40;3.10;;;31.20;15.50;;;;;;5036243;28;20536;-57
2022/03/01 12:06:56;;;;;;;4.07;2.95;;;31.40;16.10;;;;;;5035861;28;20556;-59
2022/03/01 12:09:23;;;;;;;3.05;2.80;;;32.00;15.60;;;;;;5036074;28;20549;-59
2022/03/01 12:11:49;;;;;;;3.17;2.88;;;31.20;16.30;;;;;;5036008;28;20184;-59
2022/03/01 12:14:17;;;;;;;3.13;2.88;;;30.70;16.30;;;;;;5036047;28;20200;-60
2022/03/01 12:16:43;;;;;;;3.08;2.78;;;31.10;16.60;;;;;;5035818;28;20178;-61
2022/03/01 12:19:18;;;;;;;4.65;2.90;;;31.90;16.10;;;;;;5036079;28;20227;-58
2022/03/01 12:21:51;;;;;;;3.60;3.20;;;31.20;16.10;;;;;;5036504;28;20182;-59
2022/03/01 12:24:18;;;;;;;3.40;3.10;;;30.40;16.60;;;;;;5035366;28;20202;-54
2022/03/01 12:26:50;;;;;;;4.00;3.00;;;28.30;17.60;;;;;;5035253;28;20732;-60
2022/03/01 12:29:19;;;;;;;3.90;3.10;;;27.40;18.80;;;;;;5035473;28;20192;-58
2022/03/01 12:31:57;;;;;;;3.08;2.88;;;27.80;18.20;;;;;;5035924;28;20262;-57
2022/03/01 12:34:26;;;;;;;3.42;2.80;;;28.60;17.90;;;;;;5035714;28;20207;-62
2022/03/01 12:36:55;;;;;;;3.42;3.13;;;29.80;17.20;;;;;;5035958;28;20195;-60
2022/03/01 12:39:21;;;;;;;3.15;2.85;;;30.60;16.60;;;;;;5036422;28;20180;-60
2022/03/01 12:41:49;;;;;;;3.33;3.03;;;30.70;16.90;;;;;;5036309;28;20521;-61
2022/03/01 12:44:20;;;;;;;2.92;2.72;;;31.40;17.00;;;;;;5036619;28;20180;-60
2022/03/01 12:46:46;;;;;;;2.97;2.72;;;30.10;16.90;;;;;;5035516;28;20641;-59
2022/03/01 12:49:13;;;;;;;2.90;2.70;;;27.90;17.30;;;;;;5035380;28;20564;-60
2022/03/01 12:51:40;;;;;;;3.35;3.05;;;26.30;18.90;;;;;;5034919;28;20176;-61